Pagina principale
METAR-TAF:

METAR-TAF

Aeroporti :

Narsarsuaq, Groenlandia

latitudine: 61-10N, longitudine: 045-25W, altezza: 34 m

Osservazione

Il bollettino è stato emesso 19 minuti fa, alle 19:50 UTC
Vento 10 kt da sud-ovest
Temperature -6°C
Umidità 58%
Pressione 1013 hPa
Visibilità 10 km o più
Poco nuvoloso ad un'altezza di 2000 ft
Nuvoloso ad un'altezza di 8000 ft

METAR: BGBW 221950Z 22010KT 9999 FEW020 BKN080 M06/M13 Q1013

Ora: 17:09 (20:09 UTC)

Previsione

Il bollettino è stato emesso 1 ora e 54 minuti fa, alle 18:15 UTC
Previsione valida dal 22 alle 18 UTC al 22 alle 21 UTC
Vento 15 kt da sud-ovest
Visibilità 10 km o più
Nubi sparse ad un'altezza di 2000 ft
Nuvoloso ad un'altezza di 7000 ft
Temporaneamente
dal 22 alle 18 UTC al 22 alle 21 UTC
Visibilità: 1200 m
Nuvoloso ad un'altezza di 800 ft
rovesci di neve, Scaccia neve basso

TAF: BGBW 221815Z 2218/2221 23015KT 9999 SCT020 BKN070 TEMPO 2218/2221 1200 SHSN DRSN BKN008

Osservazioni e previsioni meteorologiche di più di 4000 aeroporti (messaggi METAR e TAF).

Le stazioni disponibili sono rappresentate dai dischi gialli e rossi sulla carta.

Puntare il mouse per vedere il nome della stazione.

Clicca sopra per visualizzare le osservazioni e previsioni meteorologiche.

Per cambiare la mappa : fare clic sui pulsanti verdi con una croce nera per ingrandire, il pulsante verde con un trattino per diminuire, o sulla freccia verde per le mappe adiacenti.


METAR-TAF: